Terminal Aerodrome Forecast
Issued by NWS Sioux Falls, SD

Home | Current Version | Previous Version | Text Only | Print | Product List | Glossary Off
Versions: 1 2 3 4 5 6 7 8 9 10 11 12 13 14 15 16 17 18 19 20 21 22

000
FTUS43 KFSD 011720
TAFSUX
TAF
KSUX 011720Z 0118/0218 20009KT P6SM SCT120 SCT250
     FM012000 23013G20KT P6SM SCT050 SCT120
     FM020300 22012KT P6SM SCT100
     FM021000 26006KT P6SM SKC
     FM021500 33013KT P6SM SKC=

USA.gov is the U.S. government's official web portal to all federal, state and local government web resources and services.